createdAt,value
2019-02-06T00:01:08.954Z,47.80
2019-02-06T00:03:38.267Z,47.80
2019-02-06T00:06:07.550Z,47.50
2019-02-06T00:08:36.855Z,47.90
2019-02-06T00:11:06.207Z,48.30
2019-02-06T00:13:36.071Z,48.70
2019-02-06T00:16:06.081Z,49.40
2019-02-06T00:18:35.703Z,49.40
2019-02-06T00:21:05.059Z,50.00
2019-02-06T00:23:34.347Z,50.20
2019-02-06T00:26:03.723Z,50.30
2019-02-06T00:28:33.383Z,50.90
2019-02-06T00:31:02.684Z,50.10
2019-02-06T00:33:32.050Z,50.40
2019-02-06T00:36:01.330Z,50.10
2019-02-06T00:38:30.633Z,50.80
2019-02-06T00:41:00.036Z,50.30
2019-02-06T00:43:29.495Z,50.60
2019-02-06T00:45:58.804Z,50.00
2019-02-06T00:48:28.114Z,50.10
2019-02-06T00:50:57.395Z,50.10
2019-02-06T00:53:27.035Z,50.50
2019-02-06T00:55:56.326Z,50.60
2019-02-06T00:58:25.878Z,50.60
2019-02-06T01:00:55.186Z,50.90
2019-02-06T01:03:24.742Z,51.90
2019-02-06T01:05:54.355Z,52.00
2019-02-06T01:08:23.959Z,51.30
2019-02-06T01:10:53.262Z,50.80
2019-02-06T01:13:22.823Z,51.10
2019-02-06T01:15:52.110Z,51.20
2019-02-06T01:18:21.399Z,50.70
2019-02-06T01:20:50.723Z,51.10
2019-02-06T01:23:20.023Z,51.20
2019-02-06T01:25:49.322Z,51.20
2019-02-06T01:28:18.952Z,52.50
2019-02-06T01:30:49.899Z,52.90
2019-02-06T01:33:19.199Z,53.20
2019-02-06T01:35:50.200Z,53.60
2019-02-06T01:38:19.976Z,54.00
2019-02-06T01:40:49.258Z,53.80
2019-02-06T01:43:18.939Z,53.80
2019-02-06T01:45:48.238Z,53.60
2019-02-06T01:48:17.538Z,53.60
2019-02-06T01:50:46.831Z,53.40
2019-02-06T01:53:16.142Z,53.30
2019-02-06T01:55:45.698Z,53.60
2019-02-06T01:58:14.983Z,53.10
2019-02-06T02:00:44.283Z,52.30
2019-02-06T02:03:13.707Z,52.30
2019-02-06T02:05:43.028Z,52.30
2019-02-06T02:08:12.590Z,52.20
2019-02-06T02:10:41.969Z,52.50
2019-02-06T02:13:11.255Z,52.50
2019-02-06T02:15:40.844Z,53.90
2019-02-06T02:18:10.215Z,54.10
2019-02-06T02:20:39.731Z,53.60
2019-02-06T02:23:09.039Z,52.70
2019-02-06T02:25:38.639Z,53.00
2019-02-06T02:28:07.928Z,53.00
2019-02-06T02:30:38.889Z,53.40
2019-02-06T02:33:08.166Z,52.80
2019-02-06T02:35:37.468Z,52.20
2019-02-06T02:38:11.193Z,51.60
2019-02-06T02:40:40.675Z,51.30
2019-02-06T02:43:10.351Z,52.70
2019-02-06T02:45:39.651Z,53.40
2019-02-06T02:48:09.019Z,53.90
2019-02-06T02:50:38.316Z,53.70
2019-02-06T02:53:07.696Z,53.30
2019-02-06T02:55:36.980Z,53.80
2019-02-06T02:58:08.263Z,54.50
2019-02-06T03:00:47.940Z,54.20
2019-02-06T03:03:28.362Z,54.50
2019-02-06T03:05:57.715Z,54.50
2019-02-06T03:08:27.403Z,53.60
2019-02-06T03:10:56.693Z,53.30
2019-02-06T03:13:26.272Z,52.70
2019-02-06T03:15:55.893Z,53.10
2019-02-06T03:18:25.190Z,53.20
2019-02-06T03:20:54.502Z,53.20
2019-02-06T03:23:24.181Z,53.30
2019-02-06T03:25:53.800Z,54.80
2019-02-06T03:28:23.105Z,55.30
2019-02-06T03:30:52.427Z,55.90
2019-02-06T03:33:21.797Z,56.60
2019-02-06T03:35:51.151Z,58.00
2019-02-06T03:38:21.123Z,58.20
2019-02-06T03:40:50.422Z,57.20
2019-02-06T03:43:19.707Z,57.10
2019-02-06T03:45:49.087Z,57.30
2019-02-06T03:48:18.362Z,58.10
2019-02-06T03:50:47.668Z,57.10
2019-02-06T03:53:16.982Z,56.30
2019-02-06T03:55:46.282Z,57.60
2019-02-06T03:58:15.663Z,58.40
2019-02-06T04:00:44.972Z,58.70
2019-02-06T04:03:14.259Z,58.40
2019-02-06T04:05:43.548Z,56.70
2019-02-06T04:08:12.858Z,57.50
2019-02-06T04:10:42.324Z,56.60
2019-02-06T04:13:11.863Z,57.00
2019-02-06T04:15:41.163Z,55.40
2019-02-06T04:18:10.447Z,55.70
2019-02-06T04:20:39.752Z,55.60
2019-02-06T04:23:09.032Z,54.60
2019-02-06T04:25:38.441Z,54.10
2019-02-06T04:28:07.703Z,54.90
2019-02-06T04:30:37.003Z,54.80
2019-02-06T04:33:06.290Z,55.30
2019-02-06T04:35:35.671Z,55.70
2019-02-06T04:38:05.110Z,55.90
2019-02-06T04:40:34.585Z,56.10
2019-02-06T04:43:03.891Z,55.60
2019-02-06T04:45:33.191Z,55.50
2019-02-06T04:48:02.496Z,56.50
2019-02-06T04:50:31.778Z,55.70
2019-02-06T04:53:01.084Z,56.20
2019-02-06T04:55:30.782Z,55.50
2019-02-06T04:58:00.065Z,55.60
2019-02-06T05:00:29.367Z,55.10
2019-02-06T05:02:58.658Z,56.20
2019-02-06T05:05:27.969Z,56.40
2019-02-06T05:07:57.285Z,56.90
2019-02-06T05:10:26.852Z,57.30
2019-02-06T05:12:56.146Z,57.30
2019-02-06T05:15:25.435Z,57.30
2019-02-06T05:17:55.967Z,56.80
2019-02-06T05:20:31.624Z,56.40
2019-02-06T05:23:00.910Z,55.70
2019-02-06T05:25:30.487Z,55.60
2019-02-06T05:27:59.786Z,55.20
2019-02-06T05:30:29.384Z,54.70
2019-02-06T05:32:59.327Z,55.00
2019-02-06T05:35:28.682Z,55.50
2019-02-06T05:37:57.963Z,54.80
2019-02-06T05:40:27.750Z,55.40
2019-02-06T05:42:57.043Z,55.60
2019-02-06T05:45:26.346Z,55.80
2019-02-06T05:47:55.627Z,56.60
2019-02-06T05:50:24.957Z,56.60
2019-02-06T05:52:54.231Z,56.80
2019-02-06T05:55:23.515Z,56.30
2019-02-06T05:57:52.814Z,56.50
2019-02-06T06:00:25.584Z,56.30
2019-02-06T06:02:54.896Z,56.80
2019-02-06T06:05:24.257Z,57.70
2019-02-06T06:07:53.557Z,58.40
2019-02-06T06:10:23.503Z,58.60
2019-02-06T06:12:52.811Z,59.20
2019-02-06T06:15:22.217Z,59.10
2019-02-06T06:17:51.551Z,59.10
2019-02-06T06:20:21.186Z,59.30
2019-02-06T06:22:50.463Z,58.80
2019-02-06T06:25:21.080Z,59.60
2019-02-06T06:27:50.620Z,59.60
2019-02-06T06:30:21.472Z,59.30
2019-02-06T06:32:50.914Z,59.30
2019-02-06T06:35:20.428Z,59.30
2019-02-06T06:38:00.820Z,59.80
2019-02-06T06:40:22.819Z,59.30
2019-02-06T06:42:52.116Z,59.30
2019-02-06T06:45:24.158Z,58.80
2019-02-06T06:47:53.415Z,58.80
2019-02-06T06:50:24.464Z,57.50
2019-02-06T06:52:53.754Z,57.40
2019-02-06T06:55:23.834Z,57.20
2019-02-06T06:57:53.090Z,56.60
2019-02-06T07:00:27.491Z,56.80
2019-02-06T07:02:56.791Z,56.60
2019-02-06T07:05:26.151Z,56.00
2019-02-06T07:07:55.807Z,54.40
2019-02-06T07:10:25.489Z,54.20
2019-02-06T07:12:55.087Z,53.90
2019-02-06T07:15:30.052Z,54.00
2019-02-06T07:17:59.687Z,54.10
2019-02-06T07:20:28.971Z,54.60
2019-02-06T07:22:58.945Z,53.40
2019-02-06T07:25:28.247Z,52.90
2019-02-06T07:27:57.858Z,52.90
2019-02-06T07:30:36.661Z,53.00
2019-02-06T07:33:06.312Z,52.20
2019-02-06T07:35:35.611Z,52.10
2019-02-06T07:38:05.082Z,52.20
2019-02-06T07:40:34.364Z,52.50
2019-02-06T07:43:03.688Z,52.10
2019-02-06T07:45:32.975Z,52.20
2019-02-06T07:48:02.270Z,52.70
2019-02-06T07:50:35.459Z,53.30
2019-02-06T07:53:04.743Z,54.50
2019-02-06T07:55:34.034Z,55.80
2019-02-06T07:58:03.359Z,56.40
2019-02-06T08:00:32.722Z,58.00
2019-02-06T08:03:02.069Z,58.80
2019-02-06T08:05:31.699Z,58.70
2019-02-06T08:08:01.015Z,58.20
2019-02-06T08:10:32.908Z,57.70
2019-02-06T08:13:02.542Z,56.80
2019-02-06T08:15:31.842Z,56.30
2019-02-06T08:18:01.137Z,55.30
2019-02-06T08:20:30.503Z,54.60
2019-02-06T08:22:59.867Z,54.10
2019-02-06T08:25:29.165Z,54.00
2019-02-06T08:27:58.458Z,54.50
2019-02-06T08:30:36.330Z,53.60
2019-02-06T08:33:06.088Z,53.30
2019-02-06T08:35:35.714Z,54.00
2019-02-06T08:38:05.407Z,53.90
2019-02-06T08:40:35.439Z,52.50
2019-02-06T08:43:04.995Z,52.40
2019-02-06T08:45:34.299Z,53.10
2019-02-06T08:48:03.863Z,53.30
2019-02-06T08:50:33.439Z,52.60
2019-02-06T08:53:02.736Z,51.60
2019-02-06T08:55:33.580Z,51.50
2019-02-06T08:58:03.039Z,51.60
2019-02-06T09:00:35.186Z,51.20
2019-02-06T09:03:07.172Z,50.90
2019-02-06T09:05:36.555Z,51.30
2019-02-06T09:08:06.275Z,51.80
2019-02-06T09:10:35.657Z,52.00
2019-02-06T09:13:05.906Z,50.80
2019-02-06T09:15:35.207Z,50.10
2019-02-06T09:18:05.446Z,50.30
2019-02-06T09:20:34.819Z,51.10
2019-02-06T09:23:04.270Z,51.10
2019-02-06T09:25:33.562Z,50.80
2019-02-06T09:28:02.864Z,50.40
2019-02-06T09:30:36.098Z,50.10
2019-02-06T09:33:05.831Z,48.80
2019-02-06T09:35:35.209Z,48.30
2019-02-06T09:38:04.744Z,46.60
2019-02-06T09:40:34.043Z,45.30
2019-02-06T09:43:03.344Z,41.20
2019-02-06T09:45:32.631Z,40.70
2019-02-06T09:48:01.931Z,40.70
2019-02-06T09:50:33.561Z,39.70
2019-02-06T09:53:02.855Z,37.30
2019-02-06T09:55:32.274Z,35.10
2019-02-06T09:58:01.596Z,36.10
2019-02-06T10:00:35.455Z,34.20
2019-02-06T10:03:05.372Z,33.00
2019-02-06T10:05:35.128Z,31.20
2019-02-06T10:08:04.839Z,31.20
2019-02-06T10:10:34.210Z,31.40
2019-02-06T10:13:03.584Z,31.00
2019-02-06T10:15:35.007Z,29.50
2019-02-06T10:18:05.915Z,28.80
2019-02-06T10:20:40.995Z,27.40
2019-02-06T10:23:10.749Z,26.00
2019-02-06T10:25:40.030Z,25.80
2019-02-06T10:28:09.411Z,25.30
2019-02-06T10:30:44.422Z,26.00
2019-02-06T10:33:13.796Z,25.20
2019-02-06T10:35:43.170Z,25.90
2019-02-06T10:38:12.529Z,26.50
2019-02-06T10:40:41.828Z,26.00
2019-02-06T10:43:11.190Z,25.00
2019-02-06T10:45:40.818Z,24.40
2019-02-06T10:48:10.126Z,24.90
2019-02-06T10:50:45.239Z,25.10
2019-02-06T10:53:14.610Z,26.60
2019-02-06T10:55:43.895Z,25.20
2019-02-06T10:58:13.276Z,24.70
2019-02-06T11:00:46.082Z,24.30
2019-02-06T11:03:15.624Z,23.60
2019-02-06T11:05:44.990Z,23.10
2019-02-06T11:08:14.370Z,24.50
2019-02-06T11:10:43.655Z,24.90
2019-02-06T11:13:13.251Z,24.40
2019-02-06T11:15:42.612Z,24.20
2019-02-06T11:18:11.982Z,23.40
2019-02-06T11:20:41.379Z,24.00
2019-02-06T11:23:10.838Z,23.30
2019-02-06T11:25:40.274Z,23.50
2019-02-06T11:28:09.598Z,23.00
2019-02-06T11:30:40.099Z,22.70
2019-02-06T11:33:09.922Z,23.70
2019-02-06T11:35:39.531Z,23.70
2019-02-06T11:38:08.911Z,22.60
2019-02-06T11:40:38.532Z,22.20
2019-02-06T11:43:08.239Z,21.90
2019-02-06T11:45:37.599Z,22.10
2019-02-06T11:48:06.982Z,21.80
2019-02-06T11:50:38.279Z,22.70
2019-02-06T11:53:09.143Z,23.20
2019-02-06T11:55:38.522Z,22.80
2019-02-06T11:58:08.203Z,23.30
2019-02-06T12:00:40.586Z,22.60
2019-02-06T12:03:09.890Z,21.90
2019-02-06T12:05:39.179Z,20.90
2019-02-06T12:08:08.555Z,20.10
2019-02-06T12:10:37.847Z,20.50
2019-02-06T12:13:07.543Z,19.30
2019-02-06T12:15:37.732Z,19.60
2019-02-06T12:18:07.730Z,19.30
2019-02-06T12:20:37.455Z,19.50
2019-02-06T12:23:06.936Z,20.40
2019-02-06T12:25:36.487Z,20.80
2019-02-06T12:28:06.249Z,20.70
2019-02-06T12:30:41.738Z,20.80
2019-02-06T12:33:11.152Z,21.20
2019-02-06T12:35:40.452Z,20.00
2019-02-06T12:38:09.739Z,20.00
2019-02-06T12:40:39.184Z,20.00
2019-02-06T12:43:10.706Z,20.00
2019-02-06T12:45:40.196Z,19.50
2019-02-06T12:48:09.618Z,20.20
2019-02-06T12:50:39.191Z,20.90
2019-02-06T12:53:08.726Z,20.70
2019-02-06T12:55:40.094Z,20.80
2019-02-06T12:58:09.920Z,20.20
2019-02-06T13:00:43.948Z,20.00
2019-02-06T13:03:13.487Z,20.50
2019-02-06T13:05:42.771Z,21.10
2019-02-06T13:08:12.070Z,20.80
2019-02-06T13:10:41.619Z,19.90
2019-02-06T13:13:10.917Z,19.20
2019-02-06T13:15:40.223Z,17.20
2019-02-06T13:18:09.529Z,15.40
2019-02-06T13:20:39.137Z,15.60
2019-02-06T13:23:08.438Z,15.70
2019-02-06T13:25:37.732Z,15.70
2019-02-06T13:28:07.045Z,14.90
2019-02-06T13:30:37.479Z,15.30
2019-02-06T13:33:08.062Z,16.40
2019-02-06T13:35:38.939Z,18.10
2019-02-06T13:38:08.230Z,19.90
2019-02-06T13:40:45.147Z,21.70
2019-02-06T13:43:08.527Z,23.10
2019-02-06T13:45:43.175Z,24.10
2019-02-06T13:48:12.463Z,25.50
2019-02-06T13:50:42.107Z,25.50
2019-02-06T13:53:11.463Z,26.00
2019-02-06T13:55:40.763Z,26.30
2019-02-06T13:58:19.745Z,26.70
2019-02-06T14:00:42.307Z,26.00
2019-02-06T14:03:11.591Z,26.30
2019-02-06T14:05:42.232Z,26.30
2019-02-06T14:08:13.764Z,26.00
2019-02-06T14:10:43.208Z,25.30
2019-02-06T14:13:12.496Z,25.50
2019-02-06T14:15:44.263Z,25.30
2019-02-06T14:18:13.558Z,25.50
2019-02-06T14:20:43.895Z,25.50
2019-02-06T14:23:18.811Z,25.20
2019-02-06T14:25:53.872Z,25.20
2019-02-06T14:28:45.775Z,24.80
2019-02-06T14:31:52.939Z,24.90
2019-02-06T14:34:41.961Z,26.10
2019-02-06T14:37:23.656Z,26.30
2019-02-06T14:39:56.026Z,26.40
2019-02-06T14:42:34.138Z,26.50
2019-02-06T14:45:18.748Z,25.30
2019-02-06T14:47:56.883Z,25.30
2019-02-06T14:50:57.823Z,26.10
2019-02-06T14:53:32.788Z,25.60
2019-02-06T14:56:27.768Z,26.00
2019-02-06T14:59:20.783Z,26.00
2019-02-06T15:01:59.115Z,26.90
2019-02-06T15:04:46.714Z,26.50
2019-02-06T15:07:28.204Z,27.00
2019-02-06T15:10:12.499Z,27.50
2019-02-06T15:13:00.596Z,27.00
2019-02-06T15:15:58.640Z,27.10
2019-02-06T15:18:40.871Z,27.20
2019-02-06T15:21:34.446Z,27.00
2019-02-06T15:24:09.488Z,27.00
2019-02-06T15:26:50.967Z,28.00
2019-02-06T15:29:29.068Z,28.10
2019-02-06T15:32:16.590Z,27.50
2019-02-06T15:35:03.839Z,27.50
2019-02-06T15:37:36.224Z,27.00
2019-02-06T15:40:26.900Z,27.00
2019-02-06T15:43:02.234Z,26.90
2019-02-06T15:45:37.247Z,27.20
2019-02-06T15:48:20.969Z,28.10
2019-02-06T15:51:15.783Z,28.10
2019-02-06T15:54:00.270Z,28.40
2019-02-06T15:56:53.367Z,28.30
2019-02-06T15:59:59.595Z,28.50
2019-02-06T16:02:52.580Z,28.40
2019-02-06T16:05:32.395Z,29.00
2019-02-06T16:08:22.873Z,29.90
2019-02-06T16:10:58.086Z,29.70
2019-02-06T16:13:31.063Z,30.10
2019-02-06T16:16:32.133Z,30.40
2019-02-06T16:19:33.007Z,30.80
2019-02-06T16:22:29.454Z,31.00
2019-02-06T16:25:02.050Z,31.60
2019-02-06T16:27:37.503Z,31.50
2019-02-06T16:30:32.523Z,32.00
2019-02-06T16:33:13.631Z,32.60
2019-02-06T16:35:54.722Z,32.70
2019-02-06T16:38:39.115Z,33.00
2019-02-06T16:41:17.087Z,33.20
2019-02-06T16:43:58.476Z,34.00
2019-02-06T16:46:48.832Z,34.90
2019-02-06T16:49:24.207Z,35.90
2019-02-06T16:52:05.758Z,36.90
2019-02-06T16:54:57.155Z,37.20
2019-02-06T16:57:44.636Z,37.00
2019-02-06T17:00:39.808Z,37.30
2019-02-06T17:03:37.858Z,38.00
2019-02-06T17:06:10.503Z,37.90
2019-02-06T17:09:15.029Z,38.40
2019-02-06T17:12:04.385Z,38.40
2019-02-06T17:14:48.960Z,39.10
2019-02-06T17:17:30.126Z,39.40
2019-02-06T17:20:36.410Z,39.80
2019-02-06T17:23:20.744Z,40.40
2019-02-06T17:26:08.386Z,40.40
2019-02-06T17:28:41.020Z,39.90
2019-02-06T17:31:19.391Z,40.00
2019-02-06T17:33:58.154Z,41.30
2019-02-06T17:36:36.318Z,41.10
2019-02-06T17:39:24.126Z,41.20
2019-02-06T17:42:15.345Z,41.60
2019-02-06T17:44:40.688Z,41.90
2019-02-06T17:47:31.429Z,42.00
2019-02-06T17:50:37.163Z,42.40
2019-02-06T17:53:24.655Z,43.50
2019-02-06T17:55:53.992Z,43.40
2019-02-06T17:58:23.346Z,44.20
2019-02-06T18:00:56.405Z,44.90
2019-02-06T18:03:25.859Z,44.60
2019-02-06T18:05:55.195Z,44.80
2019-02-06T18:08:24.533Z,44.80
2019-02-06T18:10:53.867Z,44.60
2019-02-06T18:13:23.171Z,44.70
2019-02-06T18:15:52.473Z,44.70
2019-02-06T18:18:22.069Z,44.60
2019-02-06T18:20:51.392Z,44.50
2019-02-06T18:23:20.693Z,45.10
2019-02-06T18:25:50.051Z,44.60
2019-02-06T18:28:19.361Z,44.70
2019-02-06T18:30:48.635Z,45.20
2019-02-06T18:33:18.847Z,45.40
2019-02-06T18:35:48.824Z,46.10
2019-02-06T18:38:18.195Z,46.70
2019-02-06T18:40:48.427Z,46.80
2019-02-06T18:43:17.792Z,46.00
2019-02-06T18:45:47.247Z,45.40
2019-02-06T18:48:18.871Z,45.90
2019-02-06T18:50:48.222Z,46.60
2019-02-06T18:53:18.014Z,47.40
2019-02-06T18:55:47.299Z,47.70
2019-02-06T18:58:16.620Z,48.10
2019-02-06T19:00:46.589Z,48.40
2019-02-06T19:03:26.743Z,48.20
2019-02-06T19:05:56.240Z,47.90
2019-02-06T19:08:25.897Z,47.10
2019-02-06T19:10:55.447Z,46.80
2019-02-06T19:13:24.840Z,46.90
2019-02-06T19:15:56.499Z,47.10
2019-02-06T19:18:25.169Z,47.70
2019-02-06T19:20:54.502Z,48.50
2019-02-06T19:23:23.783Z,48.20
2019-02-06T19:25:53.872Z,47.90
2019-02-06T19:28:23.481Z,47.50
2019-02-06T19:30:55.464Z,48.00
2019-02-06T19:33:23.763Z,48.40
2019-02-06T19:35:53.064Z,49.70
2019-02-06T19:38:22.346Z,49.70
2019-02-06T19:40:51.654Z,49.40
2019-02-06T19:43:21.321Z,49.40
2019-02-06T19:45:50.610Z,48.70
2019-02-06T19:48:22.314Z,49.00
2019-02-06T19:50:51.338Z,49.20
2019-02-06T19:53:20.715Z,49.40
2019-02-06T19:55:49.999Z,49.40
2019-02-06T19:58:19.307Z,49.40
2019-02-06T20:00:48.968Z,49.60
2019-02-06T20:03:18.504Z,49.80
2019-02-06T20:05:47.808Z,49.30
2019-02-06T20:08:17.096Z,48.20
2019-02-06T20:10:49.333Z,48.10
2019-02-06T20:13:18.692Z,48.20
2019-02-06T20:15:48.231Z,48.20
2019-02-06T20:18:17.745Z,49.00
2019-02-06T20:20:47.296Z,49.50
2019-02-06T20:23:16.612Z,48.70
2019-02-06T20:25:45.919Z,49.10
2019-02-06T20:28:15.211Z,49.30
2019-02-06T20:30:44.583Z,49.20
2019-02-06T20:33:14.144Z,49.20
2019-02-06T20:35:43.451Z,49.40
2019-02-06T20:38:12.740Z,49.70
2019-02-06T20:40:44.018Z,50.30
2019-02-06T20:43:21.714Z,50.40
2019-02-06T20:45:44.303Z,51.30
2019-02-06T20:48:13.586Z,54.00
2019-02-06T20:50:43.409Z,54.70
2019-02-06T20:53:12.700Z,55.20
2019-02-06T20:55:42.002Z,55.10
2019-02-06T20:58:11.282Z,54.50
2019-02-06T21:00:42.560Z,55.80
2019-02-06T21:03:11.916Z,56.50
2019-02-06T21:05:41.607Z,56.30
2019-02-06T21:08:11.177Z,55.80
2019-02-06T21:10:40.466Z,56.30
2019-02-06T21:13:09.746Z,56.40
2019-02-06T21:15:39.283Z,56.60
2019-02-06T21:18:08.595Z,57.50
2019-02-06T21:20:37.949Z,58.50
2019-02-06T21:23:07.492Z,58.90
2019-02-06T21:25:36.787Z,58.80
2019-02-06T21:28:06.206Z,58.00
2019-02-06T21:30:40.608Z,57.10
2019-02-06T21:33:09.969Z,57.30
2019-02-06T21:35:39.756Z,57.00
2019-02-06T21:38:09.055Z,56.70
2019-02-06T21:40:39.111Z,56.70
2019-02-06T21:43:08.788Z,56.60
2019-02-06T21:45:38.153Z,56.30
2019-02-06T21:48:07.449Z,55.80
2019-02-06T21:50:37.111Z,55.20
2019-02-06T21:53:06.547Z,54.30
2019-02-06T21:55:35.840Z,54.30
2019-02-06T21:58:05.470Z,53.50
2019-02-06T22:00:40.450Z,53.10
2019-02-06T22:03:10.816Z,52.50
2019-02-06T22:05:40.363Z,52.10
2019-02-06T22:08:09.720Z,58.10
2019-02-06T22:10:39.015Z,69.50
2019-02-06T22:13:08.383Z,74.50
2019-02-06T22:15:38.048Z,63.10
2019-02-06T22:18:08.088Z,51.60
2019-02-06T22:20:37.690Z,48.30
2019-02-06T22:23:06.991Z,48.60
2019-02-06T22:25:36.600Z,48.90
2019-02-06T22:28:05.885Z,49.00
2019-02-06T22:30:35.187Z,48.90
2019-02-06T22:33:04.819Z,48.70
2019-02-06T22:35:34.126Z,49.40
2019-02-06T22:38:03.536Z,49.50
2019-02-06T22:40:32.828Z,51.60
2019-02-06T22:43:02.127Z,52.40
2019-02-06T22:45:31.724Z,52.60
2019-02-06T22:48:01.282Z,53.30
2019-02-06T22:50:30.656Z,55.10
2019-02-06T22:52:59.954Z,55.20
2019-02-06T22:55:29.260Z,54.20
2019-02-06T22:57:58.575Z,53.30
2019-02-06T23:00:53.703Z,53.30
2019-02-06T23:03:27.036Z,54.30
2019-02-06T23:05:56.348Z,53.40
2019-02-06T23:08:25.631Z,53.80
2019-02-06T23:10:54.960Z,53.70
2019-02-06T23:13:24.242Z,53.30
2019-02-06T23:15:53.787Z,54.00
2019-02-06T23:18:23.555Z,54.60
2019-02-06T23:20:52.843Z,55.40
2019-02-06T23:23:22.142Z,55.40
2019-02-06T23:25:51.803Z,55.80
2019-02-06T23:28:21.099Z,55.60
2019-02-06T23:30:50.388Z,55.80
2019-02-06T23:33:19.760Z,54.60
2019-02-06T23:35:49.387Z,53.50
2019-02-06T23:38:18.671Z,53.10
2019-02-06T23:40:48.259Z,52.60
2019-02-06T23:43:17.775Z,52.10
2019-02-06T23:45:47.103Z,51.80
2019-02-06T23:48:16.387Z,52.10
2019-02-06T23:50:46.000Z,51.20
2019-02-06T23:53:15.371Z,51.20
2019-02-06T23:55:45.044Z,50.90
2019-02-06T23:58:14.343Z,51.80
